California Hornblower — WDB8632 — position and weather

sailwx.info

Track history (hours):
 
Tides and Currents Weather Stations Pressure Air Temp Water Temp Dewpoint Dewpoint Depression Visibility Wind Speed Wind Dir Waves Ship Positions

California Hornblower

Owner: hornblower cruises and events, san francisco, CA. More information available from US FCC via Universal Licensing System and Coast Guard Vessel Documentation Center.

Last reported at 2017-Dec-11 05:38 UTC. Time now 2017-Dec-13 22:28 UTC.
Position N 37°48' W 122°24'.

Length 54 m; draft 4.8 m.

Type: Passenger vessel. MMSI: 366961920.

Date/timePositionNaut miles runAvg speedWind from/ knotsBaromVisibWave heightAir tempDewpointWater temp
2017-Dec-11 05:38N 37°48' W 122°24'0 0.0
2017-Dec-11 05:30N 37°48' W 122°24'0 0.5
2017-Dec-11 05:00N 37°48' W 122°23'3 6.4
2017-Dec-11 04:30N 37°50' W 122°26'2 3.4
2017-Dec-11 04:00N 37°51' W 122°28'2 3.9
2017-Dec-11 03:30N 37°49' W 122°27'3 5.7
2017-Dec-11 02:57N 37°48' W 122°24'0 0.0
2017-Dec-11 02:29N 37°48' W 122°24'0 0.0
2017-Dec-11 01:56N 37°48' W 122°24'0 0.0
2017-Dec-10 21:34N 37°48' W 122°24'0 0.0
2017-Dec-10 21:30N 37°48' W 122°24'0 0.0
2017-Dec-10 21:00N 37°48' W 122°24'0 0.0
2017-Dec-10 20:30N 37°48' W 122°24'1 1.0
2017-Dec-10 20:01N 37°48' W 122°23'3 6.2
2017-Dec-10 19:30N 37°50' W 122°26'1 1.7
2017-Dec-10 19:00N 37°49' W 122°27'2 4.7
2017-Dec-10 18:29N 37°48' W 122°24'0 0.0
2017-Dec-10 17:59N 37°48' W 122°24'0 0.0
2017-Dec-10 17:28N 37°48' W 122°24'0 0.0
2017-Dec-10 08:23N 37°48' W 122°24'0 0.0
2017-Dec-10 08:00N 37°48' W 122°24'0 0.5
2017-Dec-10 07:30N 37°48' W 122°24'2 3.8
2017-Dec-10 07:00N 37°49' W 122°26'2 3.4
2017-Dec-10 06:30N 37°49' W 122°28'2 4.1
2017-Dec-10 06:00N 37°51' W 122°28'2 4.2
2017-Dec-10 05:30N 37°52' W 122°26'2 3.6
2017-Dec-10 05:00N 37°51' W 122°25'3 5.5
2017-Dec-10 04:30N 37°48' W 122°24'0 0.8
2017-Dec-10 03:59N 37°48' W 122°24'0 0.0
2017-Dec-10 03:25N 37°48' W 122°24'0 0.0
2017-Dec-10 02:58N 37°48' W 122°24'0 0.0
2017-Dec-10 02:30N 37°48' W 122°24'0 0.0
2017-Dec-10 02:00N 37°48' W 122°24'0 0.0
2017-Dec-10 01:30N 37°48' W 122°24'1 1.7
2017-Dec-10 01:01N 37°49' W 122°24'4 7.0
2017-Dec-10 00:31N 37°49' W 122°29'3 5.7
2017-Dec-10 00:00N 37°52' W 122°27'3 5.0
2017-Dec-09 23:30N 37°50' W 122°25'2 0.9
2017-Dec-09 21:03N 37°48' W 122°24'0 0.0
2017-Dec-09 21:01N 37°48' W 122°24'0 0.0
2017-Dec-09 20:31N 37°48' W 122°24'0 0.7
2017-Dec-09 20:00N 37°48' W 122°23'3 6.0
2017-Dec-09 19:31N 37°49' W 122°27'1 1.2
2017-Dec-09 19:00N 37°49' W 122°26'2 4.7
2017-Dec-09 18:31N 37°48' W 122°24'0 0.0
2017-Dec-09 18:00N 37°48' W 122°24'0 0.0
2017-Dec-09 17:30N 37°48' W 122°24'0 0.0
2017-Dec-09 09:20N 37°48' W 122°24'0 0.0
2017-Dec-09 09:00N 37°48' W 122°24'0 0.0
2017-Dec-09 08:30N 37°48' W 122°24'0 0.0
2017-Dec-09 08:00N 37°48' W 122°24'1 2.7
2017-Dec-09 07:30N 37°48' W 122°22'1 2.1
2017-Dec-09 07:00N 37°48' W 122°23'2 4.1
2017-Dec-09 06:30N 37°49' W 122°26'3 5.3
2017-Dec-09 06:00N 37°49' W 122°29'2 4.5
2017-Dec-09 05:30N 37°52' W 122°28'3 5.0
2017-Dec-09 05:00N 37°52' W 122°25'3 5.1
2017-Dec-09 04:30N 37°50' W 122°26'3 5.1
2017-Dec-09 04:00N 37°48' W 122°24'0 0.0
2017-Dec-09 03:30N 37°48' W 122°24'0 0.0
2017-Dec-09 03:00N 37°48' W 122°24'0 0.0
2017-Dec-09 02:30N 37°48' W 122°24'0 0.0
2017-Dec-09 02:00N 37°48' W 122°24'0 0.0
2017-Dec-09 01:30N 37°48' W 122°24'1 1.6
2017-Dec-09 01:00N 37°47' W 122°23'2 3.1
2017-Dec-09 00:30N 37°49' W 122°24'3 5.2
2017-Dec-09 00:00N 37°49' W 122°27'1 1.4
2017-Dec-08 23:30N 37°49' W 122°27'3 4.2
2017-Dec-08 22:53N 37°48' W 122°24'0 0.0
2017-Dec-08 22:27N 37°48' W 122°24'0 0.0
2017-Dec-08 22:00N 37°48' W 122°24'0 0.0
2017-Dec-08 21:30N 37°48' W 122°24'0 0.2
2017-Dec-08 21:00N 37°48' W 122°24'1 2.5
2017-Dec-08 20:30N 37°49' W 122°24'4 7.1
2017-Dec-08 20:00N 37°49' W 122°29'3 6.1
2017-Dec-08 19:30N 37°49' W 122°25'1 2.9
2017-Dec-08 19:00N 37°48' W 122°24'0 0.0
2017-Dec-08 18:29N 37°48' W 122°24'0 0.0
2017-Dec-08 05:58N 37°48' W 122°24'0 0.0
2017-Dec-08 05:30N 37°48' W 122°24'1 1.5
2017-Dec-08 05:01N 37°49' W 122°24'2 3.7
2017-Dec-08 04:31N 37°50' W 122°25'3 5.6
2017-Dec-08 04:01N 37°49' W 122°28'3 5.2
2017-Dec-08 03:30N 37°50' W 122°25'2 4.0
2017-Dec-08 03:00N 37°48' W 122°24'0 0.0
2017-Dec-08 02:29N 37°48' W 122°24'0 0.0
2017-Dec-08 01:58N 37°48' W 122°24'0 0.0
2017-Dec-08 01:28N 37°48' W 122°24'0 0.0
2017-Dec-08 01:00N 37°48' W 122°24'0 0.7
2017-Dec-08 00:30N 37°48' W 122°24'0 0.7
2017-Dec-08 00:00N 37°48' W 122°23'0 0.3
2017-Dec-07 23:30N 37°48' W 122°24'0 0.0
2017-Dec-07 23:00N 37°48' W 122°24'1 1.5
2017-Dec-07 22:30N 37°47' W 122°23'3 6.5
2017-Dec-07 22:00N 37°50' W 122°25'2 4.2
2017-Dec-07 21:30N 37°52' W 122°27'2 4.9
2017-Dec-07 21:00N 37°49' W 122°28'3 6.0
2017-Dec-07 20:30N 37°49' W 122°24'1 1.9
2017-Dec-07 20:00N 37°48' W 122°24'0 0.0
2017-Dec-07 19:30N 37°48' W 122°24'0 0.0
2017-Dec-07 19:00N 37°48' W 122°24'0 0.0
2017-Dec-07 06:33N 37°48' W 122°24'0 0.0
2017-Dec-07 06:30N 37°48' W 122°24'0 0.0
2017-Dec-07 06:00N 37°48' W 122°24'0 0.3
2017-Dec-07 05:30N 37°48' W 122°23'2 4.3
2017-Dec-07 05:00N 37°46' W 122°22'3 6.2
2017-Dec-07 04:30N 37°49' W 122°24'3 6.3
2017-Dec-07 04:00N 37°50' W 122°27'1 2.0
2017-Dec-07 03:30N 37°49' W 122°26'3 5.0
2017-Dec-07 03:00N 37°48' W 122°24'0 0.0
2017-Dec-07 02:30N 37°48' W 122°24'0 0.0
2017-Dec-07 01:59N 37°48' W 122°24'0 0.0
2017-Dec-07 01:28N 37°48' W 122°24'0 0.0
2017-Dec-07 00:58N 37°48' W 122°24'  
2017-Dec-04 05:59N 37°48' W 122°24'0 0.0
2017-Dec-04 05:30N 37°48' W 122°24'1 2.5
2017-Dec-04 05:01N 37°47' W 122°23'2 4.6
2017-Dec-04 04:30N 37°49' W 122°21'3 5.7
2017-Dec-04 04:00N 37°50' W 122°25'3 5.0
2017-Dec-04 03:30N 37°49' W 122°28'4 7.1
2017-Dec-04 03:00N 37°48' W 122°24'0 0.3
2017-Dec-04 02:23N 37°48' W 122°24'0 0.0
2017-Dec-04 01:56N 37°48' W 122°24'0 0.0
2017-Dec-04 01:30N 37°48' W 122°24'0 0.0
2017-Dec-04 00:55N 37°48' W 122°24'0 0.0
2017-Dec-04 00:21N 37°48' W 122°24'0 0.0
2017-Dec-03 21:49N 37°48' W 122°24'0 0.0
2017-Dec-03 21:30N 37°48' W 122°24'0 0.0
2017-Dec-03 21:00N 37°48' W 122°24'0 0.2
2017-Dec-03 20:30N 37°48' W 122°24'1 1.7
2017-Dec-03 20:01N 37°49' W 122°24'3 5.7
2017-Dec-03 19:30N 37°49' W 122°28'1 2.8
2017-Dec-03 19:00N 37°49' W 122°26'2 3.7
2017-Dec-03 18:28N 37°48' W 122°24'0 0.0
2017-Dec-03 17:59N 37°48' W 122°24'0 0.0
2017-Dec-03 17:19N 37°48' W 122°24'0 0.0
2017-Dec-03 16:54N 37°48' W 122°24'0 0.0
2017-Dec-03 08:05N 37°48' W 122°24'0 0.0
2017-Dec-03 08:00N 37°48' W 122°24'1 2.3
2017-Dec-03 07:30N 37°47' W 122°23'2 4.9
2017-Dec-03 07:00N 37°49' W 122°21'2 5.0
2017-Dec-03 06:31N 37°49' W 122°25'3 7.0
2017-Dec-03 06:00N 37°49' W 122°29'3 6.0
2017-Dec-03 05:30N 37°52' W 122°27'2 4.2
2017-Dec-03 05:00N 37°51' W 122°25'3 5.6
2017-Dec-03 04:30N 37°49' W 122°24'1 1.3
2017-Dec-03 04:00N 37°48' W 122°24'0 0.0
2017-Dec-03 03:24N 37°48' W 122°24'0 0.0
2017-Dec-03 02:58N 37°48' W 122°24'0 0.0
2017-Dec-03 02:25N 37°48' W 122°24'0 0.0
2017-Dec-03 01:57N 37°48' W 122°24'0 0.0
2017-Dec-03 01:30N 37°48' W 122°24'0 1.0
2017-Dec-03 01:00N 37°48' W 122°24'4 7.5
2017-Dec-03 00:30N 37°51' W 122°27'2 3.8
2017-Dec-03 00:00N 37°50' W 122°28'2 4.8
2017-Dec-02 23:30N 37°50' W 122°25'2 3.6
2017-Dec-02 22:55N 37°48' W 122°24'0 0.0
2017-Dec-02 22:27N 37°48' W 122°24'0 0.0
2017-Dec-02 21:59N 37°48' W 122°24'0 0.0
2017-Dec-02 20:26N 37°48' W 122°24'1 1.2
2017-Dec-02 20:00N 37°48' W 122°23'3 6.2
2017-Dec-02 19:30N 37°50' W 122°26'0 1.0
2017-Dec-02 19:01N 37°49' W 122°27'3 5.4
2017-Dec-02 18:30N 37°48' W 122°24'0 0.0
2017-Dec-02 18:00N 37°48' W 122°24'0 0.0
2017-Dec-02 17:30N 37°48' W 122°24'0 0.0
2017-Dec-02 17:00N 37°48' W 122°24'0 0.0
2017-Dec-02 08:49N 37°48' W 122°24'0 0.0
2017-Dec-02 08:30N 37°48' W 122°24'0 0.0
2017-Dec-02 08:01N 37°48' W 122°24'1 1.7
2017-Dec-02 07:30N 37°47' W 122°23'1 1.1
2017-Dec-02 07:00N 37°48' W 122°22'3 5.0
2017-Dec-02 06:30N 37°50' W 122°23'2 4.0
2017-Dec-02 06:00N 37°50' W 122°25'2 4.4
2017-Dec-02 05:30N 37°52' W 122°26'3 6.6
2017-Dec-02 05:00N 37°50' W 122°28'2 5.0
2017-Dec-02 04:30N 37°49' W 122°25'2 3.4
2017-Dec-02 04:00N 37°48' W 122°24'0 0.0
2017-Dec-02 03:30N 37°48' W 122°24'0 0.0
2017-Dec-02 03:01N 37°48' W 122°24'0 0.0
2017-Dec-01 21:57N 37°48' W 122°24'0 0.0
2017-Dec-01 21:30N 37°48' W 122°24'0 0.0
2017-Dec-01 21:00N 37°48' W 122°24'1 2.3
2017-Dec-01 20:30N 37°49' W 122°24'2 3.8
2017-Dec-01 20:01N 37°50' W 122°27'1 2.0
2017-Dec-01 19:30N 37°49' W 122°27'2 4.1
2017-Dec-01 18:55N 37°48' W 122°24'0 0.0
2017-Dec-01 18:25N 37°48' W 122°24'  
Track history (hours):
 
Tides and Currents Weather Stations Pressure Air Temp Water Temp Dewpoint Dewpoint Depression Visibility Wind Speed Wind Dir Waves Ship Positions

California Hornblower

Owner: hornblower cruises and events, san francisco, CA. More information available from US FCC via Universal Licensing System and Coast Guard Vessel Documentation Center.

Last reported at 2017-Dec-11 05:38 UTC. Time now 2017-Dec-13 22:28 UTC.
Position N 37°48' W 122°24'.

Length 54 m; draft 4.8 m.

Type: Passenger vessel. MMSI: 366961920.

Date/timePositionNaut miles runAvg speedWind from/ knotsBaromVisibWave heightAir tempDewpointWater temp
2017-Dec-11 05:38N 37°48' W 122°24'0 0.0
2017-Dec-11 05:30N 37°48' W 122°24'0 0.5
2017-Dec-11 05:00N 37°48' W 122°23'3 6.4
2017-Dec-11 04:30N 37°50' W 122°26'2 3.4
2017-Dec-11 04:00N 37°51' W 122°28'2 3.9
2017-Dec-11 03:30N 37°49' W 122°27'3 5.7
2017-Dec-11 02:57N 37°48' W 122°24'0 0.0
2017-Dec-11 02:29N 37°48' W 122°24'0 0.0
2017-Dec-11 01:56N 37°48' W 122°24'0 0.0
2017-Dec-10 21:34N 37°48' W 122°24'0 0.0
2017-Dec-10 21:30N 37°48' W 122°24'0 0.0
2017-Dec-10 21:00N 37°48' W 122°24'0 0.0
2017-Dec-10 20:30N 37°48' W 122°24'1 1.0
2017-Dec-10 20:01N 37°48' W 122°23'3 6.2
2017-Dec-10 19:30N 37°50' W 122°26'1 1.7
2017-Dec-10 19:00N 37°49' W 122°27'2 4.7
2017-Dec-10 18:29N 37°48' W 122°24'0 0.0
2017-Dec-10 17:59N 37°48' W 122°24'0 0.0
2017-Dec-10 17:28N 37°48' W 122°24'0 0.0
2017-Dec-10 08:23N 37°48' W 122°24'0 0.0
2017-Dec-10 08:00N 37°48' W 122°24'0 0.5
2017-Dec-10 07:30N 37°48' W 122°24'2 3.8
2017-Dec-10 07:00N 37°49' W 122°26'2 3.4
2017-Dec-10 06:30N 37°49' W 122°28'2 4.1
2017-Dec-10 06:00N 37°51' W 122°28'2 4.2
2017-Dec-10 05:30N 37°52' W 122°26'2 3.6
2017-Dec-10 05:00N 37°51' W 122°25'3 5.5
2017-Dec-10 04:30N 37°48' W 122°24'0 0.8
2017-Dec-10 03:59N 37°48' W 122°24'0 0.0
2017-Dec-10 03:25N 37°48' W 122°24'0 0.0
2017-Dec-10 02:58N 37°48' W 122°24'0 0.0
2017-Dec-10 02:30N 37°48' W 122°24'0 0.0
2017-Dec-10 02:00N 37°48' W 122°24'0 0.0
2017-Dec-10 01:30N 37°48' W 122°24'1 1.7
2017-Dec-10 01:01N 37°49' W 122°24'4 7.0
2017-Dec-10 00:31N 37°49' W 122°29'3 5.7
2017-Dec-10 00:00N 37°52' W 122°27'3 5.0
2017-Dec-09 23:30N 37°50' W 122°25'2 0.9
2017-Dec-09 21:03N 37°48' W 122°24'0 0.0
2017-Dec-09 21:01N 37°48' W 122°24'0 0.0
2017-Dec-09 20:31N 37°48' W 122°24'0 0.7
2017-Dec-09 20:00N 37°48' W 122°23'3 6.0
2017-Dec-09 19:31N 37°49' W 122°27'1 1.2
2017-Dec-09 19:00N 37°49' W 122°26'2 4.7
2017-Dec-09 18:31N 37°48' W 122°24'0 0.0
2017-Dec-09 18:00N 37°48' W 122°24'0 0.0
2017-Dec-09 17:30N 37°48' W 122°24'0 0.0
2017-Dec-09 09:20N 37°48' W 122°24'0 0.0
2017-Dec-09 09:00N 37°48' W 122°24'0 0.0
2017-Dec-09 08:30N 37°48' W 122°24'0 0.0
2017-Dec-09 08:00N 37°48' W 122°24'1 2.7
2017-Dec-09 07:30N 37°48' W 122°22'1 2.1
2017-Dec-09 07:00N 37°48' W 122°23'2 4.1
2017-Dec-09 06:30N 37°49' W 122°26'3 5.3
2017-Dec-09 06:00N 37°49' W 122°29'2 4.5
2017-Dec-09 05:30N 37°52' W 122°28'3 5.0
2017-Dec-09 05:00N 37°52' W 122°25'3 5.1
2017-Dec-09 04:30N 37°50' W 122°26'3 5.1
2017-Dec-09 04:00N 37°48' W 122°24'0 0.0
2017-Dec-09 03:30N 37°48' W 122°24'0 0.0
2017-Dec-09 03:00N 37°48' W 122°24'0 0.0
2017-Dec-09 02:30N 37°48' W 122°24'0 0.0
2017-Dec-09 02:00N 37°48' W 122°24'0 0.0
2017-Dec-09 01:30N 37°48' W 122°24'1 1.6
2017-Dec-09 01:00N 37°47' W 122°23'2 3.1
2017-Dec-09 00:30N 37°49' W 122°24'3 5.2
2017-Dec-09 00:00N 37°49' W 122°27'1 1.4
2017-Dec-08 23:30N 37°49' W 122°27'3 4.2
2017-Dec-08 22:53N 37°48' W 122°24'0 0.0
2017-Dec-08 22:27N 37°48' W 122°24'0 0.0
2017-Dec-08 22:00N 37°48' W 122°24'0 0.0
2017-Dec-08 21:30N 37°48' W 122°24'0 0.2
2017-Dec-08 21:00N 37°48' W 122°24'1 2.5
2017-Dec-08 20:30N 37°49' W 122°24'4 7.1
2017-Dec-08 20:00N 37°49' W 122°29'3 6.1
2017-Dec-08 19:30N 37°49' W 122°25'1 2.9
2017-Dec-08 19:00N 37°48' W 122°24'0 0.0
2017-Dec-08 18:29N 37°48' W 122°24'0 0.0
2017-Dec-08 05:58N 37°48' W 122°24'0 0.0
2017-Dec-08 05:30N 37°48' W 122°24'1 1.5
2017-Dec-08 05:01N 37°49' W 122°24'2 3.7
2017-Dec-08 04:31N 37°50' W 122°25'3 5.6
2017-Dec-08 04:01N 37°49' W 122°28'3 5.2
2017-Dec-08 03:30N 37°50' W 122°25'2 4.0
2017-Dec-08 03:00N 37°48' W 122°24'0 0.0
2017-Dec-08 02:29N 37°48' W 122°24'0 0.0
2017-Dec-08 01:58N 37°48' W 122°24'0 0.0
2017-Dec-08 01:28N 37°48' W 122°24'0 0.0
2017-Dec-08 01:00N 37°48' W 122°24'0 0.7
2017-Dec-08 00:30N 37°48' W 122°24'0 0.7
2017-Dec-08 00:00N 37°48' W 122°23'0 0.3
2017-Dec-07 23:30N 37°48' W 122°24'0 0.0
2017-Dec-07 23:00N 37°48' W 122°24'1 1.5
2017-Dec-07 22:30N 37°47' W 122°23'3 6.5
2017-Dec-07 22:00N 37°50' W 122°25'2 4.2
2017-Dec-07 21:30N 37°52' W 122°27'2 4.9
2017-Dec-07 21:00N 37°49' W 122°28'3 6.0
2017-Dec-07 20:30N 37°49' W 122°24'1 1.9
2017-Dec-07 20:00N 37°48' W 122°24'0 0.0
2017-Dec-07 19:30N 37°48' W 122°24'0 0.0
2017-Dec-07 19:00N 37°48' W 122°24'0 0.0
2017-Dec-07 06:33N 37°48' W 122°24'0 0.0
2017-Dec-07 06:30N 37°48' W 122°24'0 0.0
2017-Dec-07 06:00N 37°48' W 122°24'0 0.3
2017-Dec-07 05:30N 37°48' W 122°23'2 4.3
2017-Dec-07 05:00N 37°46' W 122°22'3 6.2
2017-Dec-07 04:30N 37°49' W 122°24'3 6.3
2017-Dec-07 04:00N 37°50' W 122°27'1 2.0
2017-Dec-07 03:30N 37°49' W 122°26'3 5.0
2017-Dec-07 03:00N 37°48' W 122°24'0 0.0
2017-Dec-07 02:30N 37°48' W 122°24'0 0.0
2017-Dec-07 01:59N 37°48' W 122°24'0 0.0
2017-Dec-07 01:28N 37°48' W 122°24'0 0.0
2017-Dec-07 00:58N 37°48' W 122°24'  
2017-Dec-04 05:59N 37°48' W 122°24'0 0.0
2017-Dec-04 05:30N 37°48' W 122°24'1 2.5
2017-Dec-04 05:01N 37°47' W 122°23'2 4.6
2017-Dec-04 04:30N 37°49' W 122°21'3 5.7
2017-Dec-04 04:00N 37°50' W 122°25'3 5.0
2017-Dec-04 03:30N 37°49' W 122°28'4 7.1
2017-Dec-04 03:00N 37°48' W 122°24'0 0.3
2017-Dec-04 02:23N 37°48' W 122°24'0 0.0
2017-Dec-04 01:56N 37°48' W 122°24'0 0.0
2017-Dec-04 01:30N 37°48' W 122°24'0 0.0
2017-Dec-04 00:55N 37°48' W 122°24'0 0.0
2017-Dec-04 00:21N 37°48' W 122°24'0 0.0
2017-Dec-03 21:49N 37°48' W 122°24'0 0.0
2017-Dec-03 21:30N 37°48' W 122°24'0 0.0
2017-Dec-03 21:00N 37°48' W 122°24'0 0.2
2017-Dec-03 20:30N 37°48' W 122°24'1 1.7
2017-Dec-03 20:01N 37°49' W 122°24'3 5.7
2017-Dec-03 19:30N 37°49' W 122°28'1 2.8
2017-Dec-03 19:00N 37°49' W 122°26'2 3.7
2017-Dec-03 18:28N 37°48' W 122°24'0 0.0
2017-Dec-03 17:59N 37°48' W 122°24'0 0.0
2017-Dec-03 17:19N 37°48' W 122°24'0 0.0
2017-Dec-03 16:54N 37°48' W 122°24'0 0.0
2017-Dec-03 08:05N 37°48' W 122°24'0 0.0
2017-Dec-03 08:00N 37°48' W 122°24'1 2.3
2017-Dec-03 07:30N 37°47' W 122°23'2 4.9
2017-Dec-03 07:00N 37°49' W 122°21'2 5.0
2017-Dec-03 06:31N 37°49' W 122°25'3 7.0
2017-Dec-03 06:00N 37°49' W 122°29'3 6.0
2017-Dec-03 05:30N 37°52' W 122°27'2 4.2
2017-Dec-03 05:00N 37°51' W 122°25'3 5.6
2017-Dec-03 04:30N 37°49' W 122°24'1 1.3
2017-Dec-03 04:00N 37°48' W 122°24'0 0.0
2017-Dec-03 03:24N 37°48' W 122°24'0 0.0
2017-Dec-03 02:58N 37°48' W 122°24'0 0.0
2017-Dec-03 02:25N 37°48' W 122°24'0 0.0
2017-Dec-03 01:57N 37°48' W 122°24'0 0.0
2017-Dec-03 01:30N 37°48' W 122°24'0 1.0
2017-Dec-03 01:00N 37°48' W 122°24'4 7.5
2017-Dec-03 00:30N 37°51' W 122°27'2 3.8
2017-Dec-03 00:00N 37°50' W 122°28'2 4.8
2017-Dec-02 23:30N 37°50' W 122°25'2 3.6
2017-Dec-02 22:55N 37°48' W 122°24'0 0.0
2017-Dec-02 22:27N 37°48' W 122°24'0 0.0
2017-Dec-02 21:59N 37°48' W 122°24'0 0.0
2017-Dec-02 20:26N 37°48' W 122°24'1 1.2
2017-Dec-02 20:00N 37°48' W 122°23'3 6.2
2017-Dec-02 19:30N 37°50' W 122°26'0 1.0
2017-Dec-02 19:01N 37°49' W 122°27'3 5.4
2017-Dec-02 18:30N 37°48' W 122°24'0 0.0
2017-Dec-02 18:00N 37°48' W 122°24'0 0.0
2017-Dec-02 17:30N 37°48' W 122°24'0 0.0
2017-Dec-02 17:00N 37°48' W 122°24'0 0.0
2017-Dec-02 08:49N 37°48' W 122°24'0 0.0
2017-Dec-02 08:30N 37°48' W 122°24'0 0.0
2017-Dec-02 08:01N 37°48' W 122°24'1 1.7
2017-Dec-02 07:30N 37°47' W 122°23'1 1.1
2017-Dec-02 07:00N 37°48' W 122°22'3 5.0
2017-Dec-02 06:30N 37°50' W 122°23'2 4.0
2017-Dec-02 06:00N 37°50' W 122°25'2 4.4
2017-Dec-02 05:30N 37°52' W 122°26'3 6.6
2017-Dec-02 05:00N 37°50' W 122°28'2 5.0
2017-Dec-02 04:30N 37°49' W 122°25'2 3.4
2017-Dec-02 04:00N 37°48' W 122°24'0 0.0
2017-Dec-02 03:30N 37°48' W 122°24'0 0.0
2017-Dec-02 03:01N 37°48' W 122°24'0 0.0
2017-Dec-01 21:57N 37°48' W 122°24'0 0.0
2017-Dec-01 21:30N 37°48' W 122°24'0 0.0
2017-Dec-01 21:00N 37°48' W 122°24'1 2.3
2017-Dec-01 20:30N 37°49' W 122°24'2 3.8
2017-Dec-01 20:01N 37°50' W 122°27'1 2.0
2017-Dec-01 19:30N 37°49' W 122°27'2 4.1
2017-Dec-01 18:55N 37°48' W 122°24'0 0.0
2017-Dec-01 18:25N 37°48' W 122°24'  

Dump ship's entire track history